Time;durP1;ratioP1;P1;durP2;ratioP2;P2;SDS_P1;SDS_P2;PMS_P1;PMS_P2;Temp;Humidity;BMP_temperature;BMP_pressure;BME280_temperature;BME280_humidity;BME280_pressure;Samples;Min_cycle;Max_cycle;Signal;HPM_P1;HPM_P2
2021/12/31 00:02:01;;;;;;;2.35;1.30;;;;;;;;;;5044832;28;20021;-53
2021/12/31 00:04:27;;;;;;;1.55;0.80;;;;;;;;;;5032706;28;20095;-57
2021/12/31 00:06:53;;;;;;;1.50;0.70;;;;;;;;;;5041891;28;20158;-57
2021/12/31 00:09:19;;;;;;;4.47;1.10;;;;;;;;;;5051770;28;20137;-57
2021/12/31 00:11:45;;;;;;;2.53;0.82;;;;;;;;;;5052406;28;20028;-54
2021/12/31 00:14:11;;;;;;;1.60;0.68;;;;;;;;;;5052912;28;20108;-57
2021/12/31 00:16:37;;;;;;;2.45;1.08;;;;;;;;;;5052861;28;20075;-57
2021/12/31 00:19:03;;;;;;;1.80;0.90;;;;;;;;;;5051834;28;20112;-57
2021/12/31 00:21:32;;;;;;;1.92;0.93;;;;;;;;;;5051202;28;20022;-56
2021/12/31 00:23:59;;;;;;;2.27;0.80;;;;;;;;;;5052362;28;20032;-57
2021/12/31 00:26:25;;;;;;;1.65;0.70;;;;;;;;;;5051611;28;20386;-57
2021/12/31 00:28:50;;;;;;;2.97;0.98;;;;;;;;;;5051553;28;20072;-57
2021/12/31 00:31:16;;;;;;;2.22;1.15;;;;;;;;;;5052307;28;20108;-57
2021/12/31 00:33:42;;;;;;;4.43;0.90;;;;;;;;;;5052286;28;20367;-57
2021/12/31 00:36:08;;;;;;;3.55;0.90;;;;;;;;;;5052184;28;20430;-56
2021/12/31 00:38:34;;;;;;;1.80;0.90;;;;;;;;;;5051550;28;20052;-58
2021/12/31 00:41:00;;;;;;;1.85;0.95;;;;;;;;;;5051844;28;20112;-57
2021/12/31 00:43:26;;;;;;;1.63;0.73;;;;;;;;;;5052278;28;20528;-56
2021/12/31 00:45:52;;;;;;;1.83;1.00;;;;;;;;;;5052098;28;20356;-53
2021/12/31 00:48:18;;;;;;;2.55;0.95;;;;;;;;;;5051573;28;20386;-55
2021/12/31 00:50:44;;;;;;;2.22;0.80;;;;;;;;;;5051996;28;20032;-57
2021/12/31 00:53:10;;;;;;;1.88;0.70;;;;;;;;;;5052077;28;20054;-57
2021/12/31 00:55:36;;;;;;;2.28;1.20;;;;;;;;;;5051809;28;20351;-57
2021/12/31 00:58:02;;;;;;;1.92;1.05;;;;;;;;;;5051455;28;20040;-57
2021/12/31 01:00:29;;;;;;;4.00;1.13;;;;;;;;;;5051810;28;20483;-57
2021/12/31 01:02:55;;;;;;;3.08;1.25;;;;;;;;;;5036947;28;20021;-55
2021/12/31 01:05:21;;;;;;;2.22;0.98;;;;;;;;;;5031911;28;20416;-57
2021/12/31 01:07:47;;;;;;;3.33;1.23;;;;;;;;;;5047710;28;20040;-58
2021/12/31 01:10:15;;;;;;;1.55;0.88;;;;;;;;;;5051553;28;20029;-57
2021/12/31 01:12:42;;;;;;;1.92;1.20;;;;;;;;;;5051972;28;20021;-57
2021/12/31 01:15:12;;;;;;;1.35;0.80;;;;;;;;;;5051904;28;20064;-57
2021/12/31 01:20:18;;;;;;;2.28;1.20;;;;;;;;;;5051737;28;20067;-55
2021/12/31 01:22:45;;;;;;;1.77;0.80;;;;;;;;;;5051424;28;20149;-57
2021/12/31 01:25:11;;;;;;;2.90;1.30;;;;;;;;;;5051818;28;20364;-56
2021/12/31 01:27:41;;;;;;;2.08;0.77;;;;;;;;;;5051492;28;20099;-57
2021/12/31 01:30:08;;;;;;;2.17;1.10;;;;;;;;;;5051065;28;20021;-57
2021/12/31 01:32:34;;;;;;;1.83;1.23;;;;;;;;;;5051715;28;20137;-57
2021/12/31 01:35:00;;;;;;;1.50;0.75;;;;;;;;;;5051455;28;20029;-55
2021/12/31 01:37:26;;;;;;;2.38;1.05;;;;;;;;;;5052814;28;20466;-57
2021/12/31 01:39:52;;;;;;;1.35;0.80;;;;;;;;;;5054815;28;20029;-55
2021/12/31 01:42:25;;;;;;;3.70;1.33;;;;;;;;;;5055443;28;20029;-57
2021/12/31 01:45:01;;;;;;;2.92;1.38;;;;;;;;;;5055391;28;20082;-55
2021/12/31 01:47:34;;;;;;;1.50;0.80;;;;;;;;;;5055158;28;20087;-56
2021/12/31 01:50:05;;;;;;;2.97;0.80;;;;;;;;;;5054733;28;20116;-55
2021/12/31 01:52:31;;;;;;;;;;;;;;;;;;5055718;28;20040;-57
2021/12/31 01:54:57;;;;;;;1.50;0.90;;;;;;;;;;5055425;28;19905;-57
2021/12/31 01:57:24;;;;;;;3.17;1.13;;;;;;;;;;5054884;28;20029;-55
2021/12/31 01:59:50;;;;;;;3.40;1.08;;;;;;;;;;5054379;28;20127;-57
2021/12/31 02:02:17;;;;;;;2.33;0.98;;;;;;;;;;5045353;28;20091;-55
2021/12/31 02:04:43;;;;;;;2.13;1.02;;;;;;;;;;5035133;28;20026;-55
2021/12/31 02:07:09;;;;;;;1.60;0.73;;;;;;;;;;5046362;28;20041;-57
2021/12/31 02:09:43;;;;;;;2.05;1.30;;;;;;;;;;5054242;28;20048;-56
2021/12/31 02:12:11;;;;;;;5.13;1.00;;;;;;;;;;5054476;28;20115;-56
2021/12/31 02:14:37;;;;;;;1.48;0.70;;;;;;;;;;5054487;28;20057;-56
2021/12/31 02:17:07;;;;;;;2.42;1.23;;;;;;;;;;5054802;28;20521;-55
2021/12/31 02:19:33;;;;;;;2.13;1.23;;;;;;;;;;5054104;28;20068;-56
2021/12/31 02:22:00;;;;;;;1.50;0.82;;;;;;;;;;5054593;28;20074;-56
2021/12/31 02:24:26;;;;;;;1.85;0.90;;;;;;;;;;5054482;28;20067;-56
2021/12/31 02:26:52;;;;;;;1.40;0.80;;;;;;;;;;5054220;28;20475;-55
2021/12/31 02:29:19;;;;;;;2.33;0.93;;;;;;;;;;5053634;28;20032;-57
2021/12/31 02:31:45;;;;;;;1.90;0.98;;;;;;;;;;5054358;28;20033;-56
2021/12/31 02:34:11;;;;;;;1.40;0.77;;;;;;;;;;5054391;28;20040;-56
2021/12/31 02:36:37;;;;;;;2.25;1.23;;;;;;;;;;5054302;28;20021;-56
2021/12/31 02:39:03;;;;;;;1.85;0.85;;;;;;;;;;5053589;28;20147;-56
2021/12/31 02:41:29;;;;;;;4.15;0.95;;;;;;;;;;5054026;28;20418;-57
2021/12/31 02:43:55;;;;;;;2.25;1.08;;;;;;;;;;5053810;28;20029;-56
2021/12/31 02:46:21;;;;;;;2.90;1.00;;;;;;;;;;5054144;28;20087;-55
2021/12/31 02:48:56;;;;;;;2.13;1.13;;;;;;;;;;5053114;28;20032;-57
2021/12/31 02:51:22;;;;;;;2.15;1.13;;;;;;;;;;5054065;28;20112;-55
2021/12/31 02:53:51;;;;;;;1.90;0.80;;;;;;;;;;5053957;28;20029;-55
2021/12/31 02:56:18;;;;;;;3.47;1.13;;;;;;;;;;5053805;28;20412;-56
2021/12/31 02:58:44;;;;;;;2.15;1.20;;;;;;;;;;5053399;28;20324;-57
2021/12/31 03:01:10;;;;;;;2.78;1.02;;;;;;;;;;5052873;28;20376;-56
2021/12/31 03:03:37;;;;;;;1.98;1.20;;;;;;;;;;5033896;28;20105;-54
2021/12/31 03:06:03;;;;;;;4.32;1.52;;;;;;;;;;5036041;28;20541;-53
2021/12/31 03:08:31;;;;;;;3.45;1.42;;;;;;;;;;5053202;28;20029;-56
2021/12/31 03:10:57;;;;;;;5.38;0.85;;;;;;;;;;5053438;28;20116;-55
2021/12/31 03:13:23;;;;;;;3.05;1.15;;;;;;;;;;5053631;28;20100;-54
2021/12/31 03:15:51;;;;;;;2.05;1.15;;;;;;;;;;5053918;28;20029;-57
2021/12/31 03:18:18;;;;;;;1.52;0.90;;;;;;;;;;5052704;28;20514;-56
2021/12/31 03:20:57;;;;;;;2.47;0.93;;;;;;;;;;5053539;28;20029;-57
2021/12/31 03:23:24;;;;;;;4.45;1.65;;;;;;;;;;5053285;28;20033;-54
2021/12/31 03:25:49;;;;;;;2.90;0.85;;;;;;;;;;5053539;28;20028;-56
2021/12/31 03:28:15;;;;;;;2.78;0.95;;;;;;;;;;5052611;28;20025;-56
2021/12/31 03:30:41;;;;;;;3.70;1.23;;;;;;;;;;5053447;28;20031;-56
2021/12/31 03:33:07;;;;;;;2.30;1.20;;;;;;;;;;5053189;28;20493;-56
2021/12/31 03:35:33;;;;;;;1.92;1.08;;;;;;;;;;5053804;28;20033;-53
2021/12/31 03:37:59;;;;;;;1.90;1.20;;;;;;;;;;5052339;28;20029;-56
2021/12/31 03:40:25;;;;;;;1.50;1.05;;;;;;;;;;5053383;28;20061;-56
2021/12/31 03:42:51;;;;;;;3.00;1.10;;;;;;;;;;5053201;28;20067;-56
2021/12/31 03:45:17;;;;;;;2.22;1.10;;;;;;;;;;5053313;28;20478;-56
2021/12/31 03:47:43;;;;;;;3.10;2.17;;;;;;;;;;5052698;28;20108;-55
2021/12/31 03:50:09;;;;;;;1.80;0.82;;;;;;;;;;5052610;28;20033;-57
2021/12/31 03:52:39;;;;;;;2.78;1.15;;;;;;;;;;5052725;28;20032;-57
2021/12/31 03:55:08;;;;;;;2.97;0.73;;;;;;;;;;5052910;28;20565;-54
2021/12/31 03:57:35;;;;;;;1.87;1.10;;;;;;;;;;5052865;28;20115;-56
2021/12/31 04:00:01;;;;;;;2.08;1.13;;;;;;;;;;5051580;28;20277;-57
2021/12/31 04:02:27;;;;;;;1.80;1.10;;;;;;;;;;5041580;28;20029;-54
2021/12/31 04:04:53;;;;;;;2.55;0.98;;;;;;;;;;5032785;28;20356;-56
2021/12/31 04:07:21;;;;;;;1.48;0.80;;;;;;;;;;5045191;28;20033;-55
2021/12/31 04:09:47;;;;;;;2.47;0.88;;;;;;;;;;5052332;28;20437;-55
2021/12/31 04:12:13;;;;;;;2.08;1.17;;;;;;;;;;5052399;28;20029;-55
2021/12/31 04:14:39;;;;;;;1.73;0.65;;;;;;;;;;5052491;28;20075;-56
2021/12/31 04:17:05;;;;;;;1.67;0.85;;;;;;;;;;5052813;28;20475;-56
2021/12/31 04:19:31;;;;;;;1.63;1.08;;;;;;;;;;5052297;28;20122;-56
2021/12/31 04:21:57;;;;;;;2.35;1.27;;;;;;;;;;5052282;28;20029;-55
2021/12/31 04:24:51;;;;;;;3.47;1.50;;;;;;;;;;5052594;28;20166;-52
2021/12/31 04:27:15;;;;;;;1.75;0.90;;;;;;;;;;5051993;28;20044;-56
2021/12/31 04:29:47;;;;;;;1.50;0.85;;;;;;;;;;5051458;28;20040;-53
2021/12/31 04:32:13;;;;;;;1.55;0.57;;;;;;;;;;5045767;28;20183;-57
2021/12/31 04:34:39;;;;;;;1.98;1.02;;;;;;;;;;5052210;28;20200;-57
2021/12/31 04:37:05;;;;;;;1.85;0.85;;;;;;;;;;5051795;28;20462;-57
2021/12/31 04:39:31;;;;;;;1.63;0.88;;;;;;;;;;5051407;28;20029;-56
2021/12/31 04:41:57;;;;;;;1.73;0.88;;;;;;;;;;5051954;28;20017;-56
2021/12/31 04:44:23;;;;;;;3.30;1.02;;;;;;;;;;5051881;28;20057;-55
2021/12/31 04:46:48;;;;;;;3.88;0.90;;;;;;;;;;5049315;28;20067;-55
2021/12/31 04:49:14;;;;;;;2.13;0.88;;;;;;;;;;5051282;28;20025;-55
2021/12/31 04:51:40;;;;;;;2.35;1.33;;;;;;;;;;5050621;28;20510;-57
2021/12/31 04:54:14;;;;;;;3.47;1.10;;;;;;;;;;5052240;28;20017;-56
2021/12/31 04:56:40;;;;;;;2.13;1.25;;;;;;;;;;5052081;28;20033;-55
2021/12/31 04:59:06;;;;;;;2.00;0.98;;;;;;;;;;5050846;28;20025;-56
2021/12/31 05:01:31;;;;;;;1.77;0.80;;;;;;;;;;5047722;28;20029;-56
2021/12/31 05:03:57;;;;;;;1.15;0.50;;;;;;;;;;5031525;28;20418;-54
2021/12/31 05:06:23;;;;;;;2.25;1.15;;;;;;;;;;5036547;28;20048;-54
2021/12/31 05:08:49;;;;;;;2.05;1.00;;;;;;;;;;5051200;28;20095;-55
2021/12/31 05:11:15;;;;;;;2.30;1.25;;;;;;;;;;5052369;28;20040;-53
2021/12/31 05:13:41;;;;;;;4.15;1.33;;;;;;;;;;5052702;28;20029;-52
2021/12/31 05:16:07;;;;;;;1.75;0.88;;;;;;;;;;5054513;28;20060;-52
2021/12/31 05:18:33;;;;;;;2.53;1.33;;;;;;;;;;5055283;28;20021;-51
2021/12/31 05:20:59;;;;;;;2.47;1.52;;;;;;;;;;5055611;28;20032;-56
2021/12/31 05:23:25;;;;;;;1.88;1.33;;;;;;;;;;5054905;28;20031;-53
2021/12/31 05:25:51;;;;;;;6.43;1.15;;;;;;;;;;5055371;28;20063;-56
2021/12/31 05:28:17;;;;;;;2.78;1.65;;;;;;;;;;5053972;28;20143;-54
2021/12/31 05:30:43;;;;;;;2.05;1.08;;;;;;;;;;5055661;28;20025;-55
2021/12/31 05:33:09;;;;;;;1.58;0.63;;;;;;;;;;5055093;28;20033;-53
2021/12/31 05:35:35;;;;;;;1.92;1.15;;;;;;;;;;5055239;28;20457;-55
2021/12/31 05:38:01;;;;;;;3.53;1.30;;;;;;;;;;5054303;28;20037;-57
2021/12/31 05:40:27;;;;;;;2.13;1.13;;;;;;;;;;5034074;28;20495;-56
2021/12/31 05:42:54;;;;;;;2.38;1.20;;;;;;;;;;5035025;28;20036;-55
2021/12/31 05:45:20;;;;;;;4.45;1.67;;;;;;;;;;5034773;28;20470;-56
2021/12/31 05:47:48;;;;;;;2.47;1.30;;;;;;;;;;5034395;28;20044;-57
2021/12/31 05:50:28;;;;;;;2.92;1.23;;;;;;;;;;5053131;28;20060;-55
2021/12/31 05:52:57;;;;;;;3.00;1.23;;;;;;;;;;5054740;28;20059;-56
2021/12/31 05:55:23;;;;;;;2.53;1.40;;;;;;;;;;5054768;28;20036;-56
2021/12/31 05:57:49;;;;;;;3.45;2.20;;;;;;;;;;5054491;28;20033;-54
2021/12/31 06:00:16;;;;;;;3.25;1.00;;;;;;;;;;5055016;28;20025;-53
2021/12/31 06:02:42;;;;;;;2.30;1.27;;;;;;;;;;5041582;28;20033;-56
2021/12/31 06:05:08;;;;;;;1.48;0.77;;;;;;;;;;5034815;28;20123;-56
2021/12/31 06:07:34;;;;;;;1.92;1.13;;;;;;;;;;5049657;28;20479;-54
2021/12/31 06:10:00;;;;;;;2.30;1.23;;;;;;;;;;5053475;28;20052;-57
2021/12/31 06:12:26;;;;;;;3.53;1.35;;;;;;;;;;5054776;28;20087;-55
2021/12/31 06:14:54;;;;;;;2.17;1.25;;;;;;;;;;5054696;28;20135;-55
2021/12/31 06:17:25;;;;;;;1.30;0.75;;;;;;;;;;5054674;28;20364;-54
2021/12/31 06:19:53;;;;;;;3.85;1.35;;;;;;;;;;5053724;28;20102;-55
2021/12/31 06:22:19;;;;;;;2.40;1.42;;;;;;;;;;5054285;28;20044;-53
2021/12/31 06:24:45;;;;;;;1.67;1.15;;;;;;;;;;5053666;28;20029;-56
2021/12/31 06:27:10;;;;;;;2.28;1.63;;;;;;;;;;5054550;28;20037;-55
2021/12/31 06:29:36;;;;;;;3.15;1.45;;;;;;;;;;5053540;28;20083;-54
2021/12/31 06:32:02;;;;;;;3.08;1.58;;;;;;;;;;5054485;28;20028;-54
2021/12/31 06:34:28;;;;;;;2.22;1.33;;;;;;;;;;5053931;28;20041;-56
2021/12/31 06:36:54;;;;;;;4.03;1.27;;;;;;;;;;5054355;28;20352;-56
2021/12/31 06:39:20;;;;;;;2.30;1.02;;;;;;;;;;5053302;28;20033;-56
2021/12/31 06:41:46;;;;;;;2.40;1.10;;;;;;;;;;5054361;28;20455;-56
2021/12/31 06:44:13;;;;;;;2.13;1.30;;;;;;;;;;5054020;28;20441;-54
2021/12/31 06:46:39;;;;;;;3.15;1.25;;;;;;;;;;5054141;28;20064;-54
2021/12/31 06:49:05;;;;;;;2.42;1.50;;;;;;;;;;5051529;28;20064;-56
2021/12/31 06:51:31;;;;;;;2.08;1.20;;;;;;;;;;5054036;28;20029;-54
2021/12/31 06:53:57;;;;;;;3.70;1.80;;;;;;;;;;5053367;28;20067;-53
2021/12/31 06:56:23;;;;;;;2.97;1.70;;;;;;;;;;5054198;28;20028;-56
2021/12/31 06:58:49;;;;;;;2.58;1.15;;;;;;;;;;5051584;28;20028;-56
2021/12/31 07:01:15;;;;;;;2.88;1.33;;;;;;;;;;5052396;28;20029;-55
2021/12/31 07:03:41;;;;;;;2.67;1.55;;;;;;;;;;5033547;28;20029;-56
2021/12/31 07:06:07;;;;;;;3.13;1.70;;;;;;;;;;5036578;28;20538;-56
2021/12/31 07:08:33;;;;;;;2.00;1.30;;;;;;;;;;5052874;28;20463;-56
2021/12/31 07:10:59;;;;;;;1.95;1.20;;;;;;;;;;5053953;28;20375;-54
2021/12/31 07:13:25;;;;;;;3.95;2.47;;;;;;;;;;5053519;28;20083;-56
2021/12/31 07:15:51;;;;;;;3.10;1.92;;;;;;;;;;5053432;28;20029;-55
2021/12/31 07:18:18;;;;;;;2.97;1.60;;;;;;;;;;5052924;28;20466;-55
2021/12/31 07:20:44;;;;;;;2.58;1.30;;;;;;;;;;5053074;28;20039;-56
2021/12/31 07:23:11;;;;;;;3.13;1.75;;;;;;;;;;5053650;28;20025;-56
2021/12/31 07:25:38;;;;;;;3.15;1.52;;;;;;;;;;5053072;28;20036;-55
2021/12/31 07:28:04;;;;;;;5.03;1.75;;;;;;;;;;5052796;28;20033;-53
2021/12/31 07:30:30;;;;;;;4.22;1.92;;;;;;;;;;5053609;28;20033;-53
2021/12/31 07:32:57;;;;;;;4.43;1.65;;;;;;;;;;5053329;28;20352;-54
2021/12/31 07:35:23;;;;;;;3.17;1.83;;;;;;;;;;5052866;28;20037;-54
2021/12/31 07:37:52;;;;;;;3.08;2.47;;;;;;;;;;5051993;28;20068;-55
2021/12/31 07:40:25;;;;;;;2.65;1.45;;;;;;;;;;5051658;28;20390;-55
2021/12/31 07:42:51;;;;;;;3.65;2.10;;;;;;;;;;5053057;28;20033;-52
2021/12/31 07:45:18;;;;;;;2.97;2.00;;;;;;;;;;5052744;28;20052;-54
2021/12/31 07:47:44;;;;;;;4.30;2.17;;;;;;;;;;5052342;28;20036;-55
2021/12/31 07:50:11;;;;;;;2.97;2.33;;;;;;;;;;5052090;28;20032;-52
2021/12/31 07:52:37;;;;;;;4.65;2.47;;;;;;;;;;5053221;28;20040;-54
2021/12/31 07:55:03;;;;;;;4.00;2.50;;;;;;;;;;5052758;28;20025;-54
2021/12/31 07:57:29;;;;;;;3.80;2.13;;;;;;;;;;5053042;28;20036;-51
2021/12/31 07:59:55;;;;;;;5.22;2.80;;;;;;;;;;5051868;28;20036;-55
2021/12/31 08:02:21;;;;;;;3.47;2.53;;;;;;;;;;5052813;28;20033;-53
2021/12/31 08:04:47;;;;;;;3.17;2.55;;;;;;;;;;5052441;28;20115;-55
2021/12/31 08:07:13;;;;;;;4.38;2.58;;;;;;;;;;5052698;28;20045;-55
2021/12/31 08:09:40;;;;;;;4.65;2.50;;;;;;;;;;5051855;28;20170;-51
2021/12/31 08:12:06;;;;;;;2.85;1.90;;;;;;;;;;5052721;28;20419;-54
2021/12/31 08:14:32;;;;;;;4.28;3.13;;;;;;;;;;5052494;28;20029;-55
2021/12/31 08:16:58;;;;;;;4.70;2.88;;;;;;;;;;5052148;28;20029;-52
2021/12/31 08:19:24;;;;;;;4.30;2.88;;;;;;;;;;5051417;28;20076;-57
2021/12/31 08:21:50;;;;;;;4.97;3.25;;;;;;;;;;5052314;28;20033;-55
2021/12/31 08:24:16;;;;;;;5.05;3.28;;;;;;;;;;5052653;28;20052;-56
2021/12/31 08:26:42;;;;;;;3.60;2.40;;;;;;;;;;5052454;28;20143;-55
2021/12/31 08:29:12;;;;;;;4.22;3.10;;;;;;;;;;5051772;28;20043;-56
2021/12/31 08:31:38;;;;;;;4.80;3.55;;;;;;;;;;5052065;28;20447;-54
2021/12/31 08:34:04;;;;;;;4.55;3.35;;;;;;;;;;5052241;28;20056;-54
2021/12/31 08:36:30;;;;;;;5.15;3.58;;;;;;;;;;5051667;28;20509;-56
2021/12/31 08:38:56;;;;;;;5.32;3.47;;;;;;;;;;5051318;28;20433;-55
2021/12/31 08:41:22;;;;;;;5.45;2.58;;;;;;;;;;5052071;28;20029;-56
2021/12/31 08:43:48;;;;;;;3.90;3.10;;;;;;;;;;5051874;28;20438;-56
2021/12/31 08:46:14;;;;;;;5.88;3.13;;;;;;;;;;5051188;28;20110;-55
2021/12/31 08:48:40;;;;;;;5.93;3.55;;;;;;;;;;5051739;28;20087;-55
2021/12/31 08:51:06;;;;;;;3.88;2.88;;;;;;;;;;5052062;28;20465;-55
2021/12/31 08:53:32;;;;;;;5.80;3.10;;;;;;;;;;5051909;28;20035;-52
2021/12/31 08:55:58;;;;;;;4.70;2.80;;;;;;;;;;5048755;28;20548;-55
2021/12/31 08:58:24;;;;;;;3.63;3.10;;;;;;;;;;5050479;28;20486;-53
2021/12/31 09:00:50;;;;;;;4.50;3.25;;;;;;;;;;5050556;28;20379;-54
2021/12/31 09:03:15;;;;;;;4.18;3.63;;;;;;;;;;5049469;28;20425;-55
2021/12/31 09:05:41;;;;;;;4.97;3.65;;;;;;;;;;5051951;28;20481;-54
2021/12/31 09:08:07;;;;;;;4.47;3.53;;;;;;;;;;5050500;28;20390;-54
2021/12/31 09:10:33;;;;;;;5.80;3.85;;;;;;;;;;5051713;28;20390;-51
2021/12/31 09:12:59;;;;;;;6.10;3.55;;;;;;;;;;5051632;28;20381;-54
2021/12/31 09:15:25;;;;;;;4.95;3.80;;;;;;;;;;5050855;28;20029;-56
2021/12/31 09:17:51;;;;;;;5.65;3.97;;;;;;;;;;5050957;28;20032;-55
2021/12/31 09:20:17;;;;;;;4.38;3.10;;;;;;;;;;5051154;28;20080;-56
2021/12/31 09:22:45;;;;;;;5.55;3.05;;;;;;;;;;5051241;28;20112;-56
2021/12/31 09:25:11;;;;;;;3.05;2.67;;;;;;;;;;5050881;28;20091;-55
2021/12/31 09:27:37;;;;;;;5.00;3.25;;;;;;;;;;5035146;28;20436;-55
2021/12/31 09:30:03;;;;;;;3.85;2.40;;;;;;;;;;5051034;28;20047;-54
2021/12/31 09:32:29;;;;;;;4.07;2.78;;;;;;;;;;5051308;28;20040;-55
2021/12/31 09:34:55;;;;;;;5.75;3.45;;;;;;;;;;5050942;28;20029;-55
2021/12/31 09:37:21;;;;;;;4.50;2.65;;;;;;;;;;5050848;28;20033;-56
2021/12/31 09:39:47;;;;;;;3.53;2.42;;;;;;;;;;5050494;28;20033;-54
2021/12/31 09:42:13;;;;;;;3.13;2.35;;;;;;;;;;5051065;28;20029;-54
2021/12/31 09:44:40;;;;;;;2.95;2.22;;;;;;;;;;5050842;28;20031;-55
2021/12/31 09:47:10;;;;;;;4.07;2.13;;;;;;;;;;5050970;28;20083;-53
2021/12/31 09:49:38;;;;;;;2.75;1.77;;;;;;;;;;5050256;28;20037;-56
2021/12/31 09:52:04;;;;;;;3.28;2.20;;;;;;;;;;5050710;28;20036;-55
2021/12/31 09:54:30;;;;;;;4.00;2.63;;;;;;;;;;5050780;28;20021;-52
2021/12/31 09:56:56;;;;;;;4.30;2.72;;;;;;;;;;5050474;28;20490;-55
2021/12/31 09:59:24;;;;;;;3.45;2.50;;;;;;;;;;5052490;28;20029;-53
2021/12/31 10:01:52;;;;;;;4.43;2.80;;;;;;;;;;5042155;28;20055;-56
2021/12/31 10:04:18;;;;;;;6.47;2.15;;;;;;;;;;5054546;28;20032;-54
2021/12/31 10:07:03;;;;;;;4.15;2.40;;;;;;;;;;5054674;28;20040;-54
2021/12/31 10:09:29;;;;;;;3.90;2.60;;;;;;;;;;5053342;28;20025;-51
2021/12/31 10:11:57;;;;;;;4.15;2.58;;;;;;;;;;5054384;28;20412;-54
2021/12/31 10:14:33;;;;;;;2.85;1.73;;;;;;;;;;5054247;28;20037;-53
2021/12/31 10:16:59;;;;;;;3.20;1.92;;;;;;;;;;5054470;28;20036;-54
2021/12/31 10:19:25;;;;;;;3.45;2.53;;;;;;;;;;5053593;28;20139;-52
2021/12/31 10:21:54;;;;;;;5.47;3.00;;;;;;;;;;5053868;28;20037;-56
2021/12/31 10:24:20;;;;;;;3.70;2.42;;;;;;;;;;5053410;28;20037;-52
2021/12/31 10:26:46;;;;;;;5.20;3.10;;;;;;;;;;5054419;28;20037;-54
2021/12/31 10:29:13;;;;;;;6.32;3.25;;;;;;;;;;5053969;28;20029;-52
2021/12/31 10:31:43;;;;;;;4.45;3.55;;;;;;;;;;5054014;28;20496;-56
2021/12/31 10:34:24;;;;;;;7.20;3.15;;;;;;;;;;5053384;28;20037;-55
2021/12/31 10:36:50;;;;;;;3.83;2.75;;;;;;;;;;5053960;28;20102;-56
2021/12/31 10:39:21;;;;;;;5.03;3.25;;;;;;;;;;5053264;28;20029;-54
2021/12/31 10:41:50;;;;;;;3.55;2.67;;;;;;;;;;5054222;28;20292;-51
2021/12/31 10:44:16;;;;;;;4.63;3.55;;;;;;;;;;5053635;28;20463;-56
2021/12/31 10:46:42;;;;;;;4.50;2.90;;;;;;;;;;5053900;28;20072;-52
2021/12/31 10:49:11;;;;;;;5.57;3.90;;;;;;;;;;5053124;28;20032;-55
2021/12/31 10:51:39;;;;;;;5.80;2.47;;;;;;;;;;5053472;28;20025;-56
2021/12/31 10:54:46;;;;;;;4.53;3.47;;;;;;;;;;5053140;28;20036;-56
2021/12/31 10:57:12;;;;;;;3.65;2.75;;;;;;;;;;5053709;28;20039;-56
2021/12/31 10:59:38;;;;;;;3.75;2.45;;;;;;;;;;5052506;28;20124;-54
2021/12/31 11:02:06;;;;;;;5.25;3.50;;;;;;;;;;5050874;28;20029;-55
2021/12/31 11:04:32;;;;;;;4.93;3.63;;;;;;;;;;5053284;28;20017;-55
2021/12/31 11:07:00;;;;;;;4.55;3.35;;;;;;;;;;5053163;28;20041;-56
2021/12/31 11:09:26;;;;;;;3.47;2.88;;;;;;;;;;5052477;28;20025;-55
2021/12/31 11:11:53;;;;;;;5.15;3.38;;;;;;;;;;5052996;28;20398;-54
2021/12/31 11:14:19;;;;;;;4.32;2.47;;;;;;;;;;5052806;28;20021;-55
2021/12/31 11:16:45;;;;;;;4.15;3.15;;;;;;;;;;5053433;28;20098;-54
2021/12/31 11:19:11;;;;;;;3.88;2.63;;;;;;;;;;5052215;28;20462;-52
2021/12/31 11:21:38;;;;;;;5.97;2.97;;;;;;;;;;5052426;28;20036;-53
2021/12/31 11:24:22;;;;;;;3.70;2.85;;;;;;;;;;5052206;28;20087;-57
2021/12/31 11:26:48;;;;;;;3.63;2.65;;;;;;;;;;5052805;28;20382;-55
2021/12/31 11:29:18;;;;;;;3.28;2.28;;;;;;;;;;5052200;28;20112;-56
2021/12/31 11:31:44;;;;;;;4.18;2.70;;;;;;;;;;5052786;28;20386;-56
2021/12/31 11:34:12;;;;;;;2.85;2.30;;;;;;;;;;5052235;28;20037;-56
2021/12/31 11:36:39;;;;;;;3.65;2.60;;;;;;;;;;5053008;28;20033;-56
2021/12/31 11:39:17;;;;;;;4.35;3.05;;;;;;;;;;5051881;28;20029;-54
2021/12/31 11:41:44;;;;;;;3.80;2.08;;;;;;;;;;5052920;28;20036;-52
2021/12/31 11:44:13;;;;;;;3.17;2.67;;;;;;;;;;5052512;28;20155;-51
2021/12/31 11:46:43;;;;;;;3.50;2.40;;;;;;;;;;5052692;28;20367;-54
2021/12/31 11:49:10;;;;;;;4.85;2.72;;;;;;;;;;5052091;28;20390;-55
2021/12/31 11:51:38;;;;;;;5.82;3.25;;;;;;;;;;5052658;28;20052;-50
2021/12/31 11:54:06;;;;;;;3.50;2.80;;;;;;;;;;5051225;28;20505;-55
2021/12/31 11:56:35;;;;;;;4.07;2.88;;;;;;;;;;5052461;28;20021;-56
2021/12/31 11:59:10;;;;;;;4.20;2.95;;;;;;;;;;5051847;28;20021;-54
2021/12/31 12:01:55;;;;;;;4.03;2.53;;;;;;;;;;5052594;28;20064;-55
2021/12/31 12:04:28;;;;;;;3.15;1.88;;;;;;;;;;5052195;28;20031;-55
2021/12/31 12:06:54;;;;;;;2.97;2.00;;;;;;;;;;5052415;28;20071;-54
2021/12/31 12:09:20;;;;;;;3.58;2.58;;;;;;;;;;5051807;28;20032;-55
2021/12/31 12:12:05;;;;;;;2.65;1.70;;;;;;;;;;5052266;28;20077;-56
2021/12/31 12:14:37;;;;;;;3.40;2.20;;;;;;;;;;5051893;28;20147;-55
2021/12/31 12:17:04;;;;;;;2.95;1.95;;;;;;;;;;5052384;28;20037;-56
2021/12/31 12:19:50;;;;;;;2.35;1.40;;;;;;;;;;5051591;28;20364;-53
2021/12/31 12:22:33;;;;;;;3.33;1.63;;;;;;;;;;5051138;28;20037;-54
2021/12/31 12:25:00;;;;;;;3.88;1.83;;;;;;;;;;5051297;28;20060;-56
2021/12/31 12:27:27;;;;;;;2.88;1.73;;;;;;;;;;5052200;28;20048;-56
2021/12/31 12:29:53;;;;;;;2.65;1.85;;;;;;;;;;5051405;28;20032;-53
2021/12/31 12:32:32;;;;;;;2.47;1.40;;;;;;;;;;5051846;28;20063;-55
2021/12/31 12:34:58;;;;;;;2.33;1.30;;;;;;;;;;5052005;28;20437;-55
2021/12/31 12:37:28;;;;;;;2.20;1.10;;;;;;;;;;5051778;28;20036;-56
2021/12/31 12:39:58;;;;;;;2.67;1.88;;;;;;;;;;5051292;28;20062;-56
2021/12/31 12:42:24;;;;;;;3.33;2.10;;;;;;;;;;5051420;28;20037;-53
2021/12/31 12:45:00;;;;;;;3.40;2.05;;;;;;;;;;5051714;28;20313;-53
2021/12/31 12:47:26;;;;;;;3.80;2.58;;;;;;;;;;5051721;28;20087;-55
2021/12/31 12:49:55;;;;;;;2.72;1.77;;;;;;;;;;5051247;28;20029;-54
2021/12/31 12:52:21;;;;;;;2.25;1.35;;;;;;;;;;5051353;28;20363;-57
2021/12/31 12:54:47;;;;;;;2.60;1.48;;;;;;;;;;5049780;28;20033;-54
2021/12/31 12:57:23;;;;;;;3.28;1.80;;;;;;;;;;5050271;28;20045;-56
2021/12/31 12:59:49;;;;;;;3.17;1.38;;;;;;;;;;5049323;28;20035;-54
2021/12/31 13:02:16;;;;;;;3.42;1.45;;;;;;;;;;5051723;28;20029;-54
2021/12/31 13:04:42;;;;;;;2.88;1.80;;;;;;;;;;5051081;28;20041;-57
2021/12/31 13:07:10;;;;;;;2.47;1.55;;;;;;;;;;5051507;28;20082;-55
2021/12/31 13:09:36;;;;;;;7.70;4.65;;;;;;;;;;5051093;28;20475;-51
2021/12/31 13:12:04;;;;;;;2.75;1.67;;;;;;;;;;5051537;28;20029;-54
2021/12/31 13:14:35;;;;;;;3.40;1.73;;;;;;;;;;5051059;28;20421;-53
2021/12/31 13:17:02;;;;;;;2.38;1.40;;;;;;;;;;5051626;28;20032;-55
2021/12/31 13:19:37;;;;;;;3.13;1.70;;;;;;;;;;5050872;28;20111;-55
2021/12/31 13:22:07;;;;;;;2.58;1.40;;;;;;;;;;5051681;28;20043;-56
2021/12/31 13:24:34;;;;;;;2.20;1.23;;;;;;;;;;5050541;28;20127;-55
2021/12/31 13:27:05;;;;;;;2.10;1.30;;;;;;;;;;5051423;28;20029;-54
2021/12/31 13:29:35;;;;;;;1.92;1.10;;;;;;;;;;5050678;28;20117;-55
2021/12/31 13:32:05;;;;;;;1.80;1.20;;;;;;;;;;5051862;28;20029;-56
2021/12/31 13:34:39;;;;;;;3.00;1.23;;;;;;;;;;5054887;28;20033;-56
2021/12/31 13:37:05;;;;;;;3.03;1.63;;;;;;;;;;5054644;28;20518;-54
2021/12/31 13:39:42;;;;;;;2.47;1.50;;;;;;;;;;5054582;28;20064;-56
2021/12/31 13:42:12;;;;;;;3.35;1.60;;;;;;;;;;5054895;28;20551;-54
2021/12/31 13:44:39;;;;;;;3.30;2.05;;;;;;;;;;5054001;28;20478;-55
2021/12/31 13:47:05;;;;;;;2.50;1.63;;;;;;;;;;5055040;28;20041;-56
2021/12/31 13:49:32;;;;;;;2.70;1.70;;;;;;;;;;5051229;28;20102;-53
2021/12/31 13:51:58;;;;;;;2.45;1.48;;;;;;;;;;5054774;28;20109;-56
2021/12/31 13:54:44;;;;;;;2.28;1.35;;;;;;;;;;5054457;28;20032;-56
2021/12/31 13:57:20;;;;;;;3.08;1.77;;;;;;;;;;5054032;28;20565;-51
2021/12/31 13:59:47;;;;;;;2.83;1.65;;;;;;;;;;5054395;28;20031;-53
2021/12/31 14:02:15;;;;;;;2.20;1.55;;;;;;;;;;5053901;28;20041;-56
2021/12/31 14:04:57;;;;;;;2.67;1.67;;;;;;;;;;5054082;28;20418;-55
2021/12/31 14:07:36;;;;;;;2.97;1.63;;;;;;;;;;5045099;28;20501;-55
2021/12/31 14:10:04;;;;;;;1.92;1.30;;;;;;;;;;5053822;28;20048;-56
2021/12/31 14:12:30;;;;;;;3.30;1.90;;;;;;;;;;5054241;28;20029;-53
2021/12/31 14:14:56;;;;;;;2.67;1.48;;;;;;;;;;5054738;28;20145;-56
2021/12/31 14:17:23;;;;;;;2.78;1.50;;;;;;;;;;5037864;28;20104;-56
2021/12/31 14:19:49;;;;;;;2.10;1.50;;;;;;;;;;5046111;28;20044;-54
2021/12/31 14:22:15;;;;;;;2.63;1.42;;;;;;;;;;5052832;28;20377;-56
2021/12/31 14:24:41;;;;;;;2.45;1.58;;;;;;;;;;5050892;28;20427;-53
2021/12/31 14:27:07;;;;;;;2.33;1.55;;;;;;;;;;5053980;28;20470;-56
2021/12/31 14:29:33;;;;;;;2.25;1.33;;;;;;;;;;5053330;28;20505;-55
2021/12/31 14:32:01;;;;;;;2.95;1.35;;;;;;;;;;5053987;28;20029;-56
2021/12/31 14:34:29;;;;;;;3.10;0.88;;;;;;;;;;5053788;28;20467;-57
2021/12/31 14:37:02;;;;;;;2.72;1.52;;;;;;;;;;5054211;28;20040;-56
2021/12/31 14:39:28;;;;;;;1.95;1.02;;;;;;;;;;5053283;28;20029;-56
2021/12/31 14:41:55;;;;;;;2.20;1.30;;;;;;;;;;5054020;28;20029;-54
2021/12/31 14:44:22;;;;;;;2.65;1.55;;;;;;;;;;5050127;28;20067;-56
2021/12/31 14:46:49;;;;;;;2.45;1.48;;;;;;;;;;5052233;28;20044;-55
2021/12/31 14:49:15;;;;;;;3.55;1.95;;;;;;;;;;5052747;28;20037;-54